sensor_id;sensor_type;location;lat;lon;timestamp;P1;durP1;ratioP1;P2;durP2;ratioP2
37097;SDS011;63608;49.572;12.348;2022-11-02T00:00:38;16.70;;;12.73;;
37097;SDS011;63608;49.572;12.348;2022-11-02T00:02:42;15.80;;;12.50;;
37097;SDS011;63608;49.572;12.348;2022-11-02T00:04:44;16.50;;;12.30;;
37097;SDS011;63608;49.572;12.348;2022-11-02T00:06:46;22.43;;;12.00;;
37097;SDS011;63608;49.572;12.348;2022-11-02T00:08:48;18.50;;;12.50;;
37097;SDS011;63608;49.572;12.348;2022-11-02T00:10:50;15.27;;;12.03;;
37097;SDS011;63608;49.572;12.348;2022-11-02T00:12:52;17.60;;;12.83;;
37097;SDS011;63608;49.572;12.348;2022-11-02T00:14:54;19.00;;;13.70;;
37097;SDS011;63608;49.572;12.348;2022-11-02T00:16:56;14.97;;;12.03;;
37097;SDS011;63608;49.572;12.348;2022-11-02T00:19:00;17.17;;;12.20;;
37097;SDS011;63608;49.572;12.348;2022-11-02T00:21:05;16.87;;;12.13;;
37097;SDS011;63608;49.572;12.348;2022-11-02T00:23:07;18.57;;;12.57;;
37097;SDS011;63608;49.572;12.348;2022-11-02T00:25:11;16.13;;;11.80;;
37097;SDS011;63608;49.572;12.348;2022-11-02T00:27:15;17.57;;;13.40;;
37097;SDS011;63608;49.572;12.348;2022-11-02T00:29:17;15.63;;;12.30;;
37097;SDS011;63608;49.572;12.348;2022-11-02T00:31:20;15.47;;;11.50;;
37097;SDS011;63608;49.572;12.348;2022-11-02T00:33:29;14.17;;;11.13;;
37097;SDS011;63608;49.572;12.348;2022-11-02T00:35:33;13.13;;;11.07;;
37097;SDS011;63608;49.572;12.348;2022-11-02T00:37:35;17.00;;;11.20;;
37097;SDS011;63608;49.572;12.348;2022-11-02T00:39:38;14.70;;;11.47;;
37097;SDS011;63608;49.572;12.348;2022-11-02T00:41:40;14.73;;;11.00;;
37097;SDS011;63608;49.572;12.348;2022-11-02T00:43:42;15.97;;;10.40;;
37097;SDS011;63608;49.572;12.348;2022-11-02T00:45:44;13.97;;;10.13;;
37097;SDS011;63608;49.572;12.348;2022-11-02T00:47:46;17.87;;;10.60;;
37097;SDS011;63608;49.572;12.348;2022-11-02T00:49:48;20.23;;;11.53;;
37097;SDS011;63608;49.572;12.348;2022-11-02T00:51:52;16.07;;;11.30;;
37097;SDS011;63608;49.572;12.348;2022-11-02T00:53:54;15.03;;;10.77;;
37097;SDS011;63608;49.572;12.348;2022-11-02T00:55:56;19.30;;;12.90;;
37097;SDS011;63608;49.572;12.348;2022-11-02T00:57:58;16.93;;;12.10;;
37097;SDS011;63608;49.572;12.348;2022-11-02T01:00:00;15.13;;;11.13;;
37097;SDS011;63608;49.572;12.348;2022-11-02T01:02:02;18.87;;;12.10;;
37097;SDS011;63608;49.572;12.348;2022-11-02T01:04:05;18.80;;;11.60;;
37097;SDS011;63608;49.572;12.348;2022-11-02T01:06:08;14.93;;;11.23;;
37097;SDS011;63608;49.572;12.348;2022-11-02T01:08:13;14.67;;;10.90;;
37097;SDS011;63608;49.572;12.348;2022-11-02T01:10:14;15.00;;;11.30;;
37097;SDS011;63608;49.572;12.348;2022-11-02T01:12:16;17.13;;;12.10;;
37097;SDS011;63608;49.572;12.348;2022-11-02T01:14:19;20.37;;;13.00;;
37097;SDS011;63608;49.572;12.348;2022-11-02T01:18:45;17.30;;;11.77;;
37097;SDS011;63608;49.572;12.348;2022-11-02T01:20:50;18.80;;;11.80;;
37097;SDS011;63608;49.572;12.348;2022-11-02T01:22:57;16.33;;;11.27;;
37097;SDS011;63608;49.572;12.348;2022-11-02T01:25:00;19.00;;;12.20;;
37097;SDS011;63608;49.572;12.348;2022-11-02T01:27:04;13.37;;;10.03;;
37097;SDS011;63608;49.572;12.348;2022-11-02T01:29:06;17.00;;;12.20;;
37097;SDS011;63608;49.572;12.348;2022-11-02T01:31:08;13.93;;;10.83;;
37097;SDS011;63608;49.572;12.348;2022-11-02T01:33:10;17.03;;;11.70;;
37097;SDS011;63608;49.572;12.348;2022-11-02T01:35:12;21.53;;;12.37;;
37097;SDS011;63608;49.572;12.348;2022-11-02T01:37:15;15.80;;;10.17;;
37097;SDS011;63608;49.572;12.348;2022-11-02T01:39:17;19.87;;;11.30;;
37097;SDS011;63608;49.572;12.348;2022-11-02T01:41:21;18.40;;;10.90;;
37097;SDS011;63608;49.572;12.348;2022-11-02T01:43:24;16.80;;;10.87;;
37097;SDS011;63608;49.572;12.348;2022-11-02T01:45:27;17.37;;;11.93;;
37097;SDS011;63608;49.572;12.348;2022-11-02T01:47:29;14.30;;;10.60;;
37097;SDS011;63608;49.572;12.348;2022-11-02T01:49:34;16.50;;;11.60;;
37097;SDS011;63608;49.572;12.348;2022-11-02T01:51:39;16.07;;;11.63;;
37097;SDS011;63608;49.572;12.348;2022-11-02T01:53:44;19.23;;;12.13;;
37097;SDS011;63608;49.572;12.348;2022-11-02T01:55:49;15.83;;;10.97;;
37097;SDS011;63608;49.572;12.348;2022-11-02T01:57:54;14.60;;;10.90;;
37097;SDS011;63608;49.572;12.348;2022-11-02T02:00:00;16.50;;;11.50;;
37097;SDS011;63608;49.572;12.348;2022-11-02T02:02:06;18.07;;;11.30;;
37097;SDS011;63608;49.572;12.348;2022-11-02T02:04:12;16.53;;;12.27;;
37097;SDS011;63608;49.572;12.348;2022-11-02T02:06:15;14.43;;;11.20;;
37097;SDS011;63608;49.572;12.348;2022-11-02T02:08:18;14.03;;;10.97;;
37097;SDS011;63608;49.572;12.348;2022-11-02T02:10:21;15.43;;;11.50;;
37097;SDS011;63608;49.572;12.348;2022-11-02T02:12:23;16.97;;;12.10;;
37097;SDS011;63608;49.572;12.348;2022-11-02T02:14:27;17.87;;;11.73;;
37097;SDS011;63608;49.572;12.348;2022-11-02T02:16:35;17.23;;;12.10;;
37097;SDS011;63608;49.572;12.348;2022-11-02T02:18:45;16.77;;;11.50;;
37097;SDS011;63608;49.572;12.348;2022-11-02T02:20:56;14.27;;;11.10;;
37097;SDS011;63608;49.572;12.348;2022-11-02T02:26:05;17.80;;;11.50;;
37097;SDS011;63608;49.572;12.348;2022-11-02T02:28:31;16.47;;;11.00;;
37097;SDS011;63608;49.572;12.348;2022-11-02T02:30:39;17.50;;;10.70;;
37097;SDS011;63608;49.572;12.348;2022-11-02T02:32:46;12.70;;;10.33;;
37097;SDS011;63608;49.572;12.348;2022-11-02T02:34:51;16.20;;;10.63;;
37097;SDS011;63608;49.572;12.348;2022-11-02T02:36:55;14.60;;;10.93;;
37097;SDS011;63608;49.572;12.348;2022-11-02T02:39:00;16.83;;;9.77;;
37097;SDS011;63608;49.572;12.348;2022-11-02T02:41:07;11.97;;;10.23;;
37097;SDS011;63608;49.572;12.348;2022-11-02T02:43:12;16.07;;;9.93;;
37097;SDS011;63608;49.572;12.348;2022-11-02T02:45:19;17.47;;;10.67;;
37097;SDS011;63608;49.572;12.348;2022-11-02T02:47:25;12.53;;;9.70;;
37097;SDS011;63608;49.572;12.348;2022-11-02T02:49:31;17.20;;;10.43;;
37097;SDS011;63608;49.572;12.348;2022-11-02T02:51:35;14.17;;;10.47;;
37097;SDS011;63608;49.572;12.348;2022-11-02T02:53:39;16.30;;;10.83;;
37097;SDS011;63608;49.572;12.348;2022-11-02T02:55:43;14.87;;;10.37;;
37097;SDS011;63608;49.572;12.348;2022-11-02T02:57:47;16.93;;;9.90;;
37097;SDS011;63608;49.572;12.348;2022-11-02T02:59:49;12.13;;;9.30;;
37097;SDS011;63608;49.572;12.348;2022-11-02T03:01:53;15.20;;;9.57;;
37097;SDS011;63608;49.572;12.348;2022-11-02T03:03:56;13.13;;;9.77;;
37097;SDS011;63608;49.572;12.348;2022-11-02T03:06:01;12.73;;;9.80;;
37097;SDS011;63608;49.572;12.348;2022-11-02T03:08:06;17.17;;;9.60;;
37097;SDS011;63608;49.572;12.348;2022-11-02T03:10:10;15.20;;;9.20;;
37097;SDS011;63608;49.572;12.348;2022-11-02T03:12:20;13.00;;;9.30;;
37097;SDS011;63608;49.572;12.348;2022-11-02T03:14:30;11.40;;;8.30;;
37097;SDS011;63608;49.572;12.348;2022-11-02T03:16:41;14.23;;;9.80;;
37097;SDS011;63608;49.572;12.348;2022-11-02T03:18:51;16.10;;;9.30;;
37097;SDS011;63608;49.572;12.348;2022-11-02T03:20:56;12.17;;;9.20;;
37097;SDS011;63608;49.572;12.348;2022-11-02T03:23:05;11.97;;;9.30;;
37097;SDS011;63608;49.572;12.348;2022-11-02T03:25:12;11.03;;;9.30;;
37097;SDS011;63608;49.572;12.348;2022-11-02T03:27:17;15.93;;;10.70;;
37097;SDS011;63608;49.572;12.348;2022-11-02T03:29:23;13.27;;;10.37;;
37097;SDS011;63608;49.572;12.348;2022-11-02T03:31:30;15.17;;;10.40;;
37097;SDS011;63608;49.572;12.348;2022-11-02T03:33:36;12.13;;;9.50;;
37097;SDS011;63608;49.572;12.348;2022-11-02T03:35:44;16.43;;;10.03;;
37097;SDS011;63608;49.572;12.348;2022-11-02T03:37:50;15.47;;;10.57;;
37097;SDS011;63608;49.572;12.348;2022-11-02T03:39:54;15.33;;;11.40;;
37097;SDS011;63608;49.572;12.348;2022-11-02T03:41:58;15.03;;;10.23;;
37097;SDS011;63608;49.572;12.348;2022-11-02T03:44:03;17.30;;;10.30;;
37097;SDS011;63608;49.572;12.348;2022-11-02T03:46:07;12.63;;;9.70;;
37097;SDS011;63608;49.572;12.348;2022-11-02T03:48:11;16.13;;;10.07;;
37097;SDS011;63608;49.572;12.348;2022-11-02T03:50:15;15.60;;;10.30;;
37097;SDS011;63608;49.572;12.348;2022-11-02T03:52:30;12.43;;;9.50;;
37097;SDS011;63608;49.572;12.348;2022-11-02T03:54:37;17.90;;;10.03;;
37097;SDS011;63608;49.572;12.348;2022-11-02T03:56:43;16.90;;;9.47;;
37097;SDS011;63608;49.572;12.348;2022-11-02T03:58:47;12.23;;;9.77;;
37097;SDS011;63608;49.572;12.348;2022-11-02T04:00:50;12.17;;;9.83;;
37097;SDS011;63608;49.572;12.348;2022-11-02T04:02:54;13.33;;;10.43;;
37097;SDS011;63608;49.572;12.348;2022-11-02T04:04:57;14.30;;;10.27;;
37097;SDS011;63608;49.572;12.348;2022-11-02T04:06:59;13.67;;;9.97;;
37097;SDS011;63608;49.572;12.348;2022-11-02T04:09:04;18.87;;;12.13;;
37097;SDS011;63608;49.572;12.348;2022-11-02T04:11:06;19.63;;;11.53;;
37097;SDS011;63608;49.572;12.348;2022-11-02T04:13:26;18.80;;;11.73;;
37097;SDS011;63608;49.572;12.348;2022-11-02T04:15:45;19.30;;;11.20;;
37097;SDS011;63608;49.572;12.348;2022-11-02T04:17:47;19.97;;;12.00;;
37097;SDS011;63608;49.572;12.348;2022-11-02T04:20:22;18.23;;;11.63;;
37097;SDS011;63608;49.572;12.348;2022-11-02T04:22:24;17.93;;;12.70;;
37097;SDS011;63608;49.572;12.348;2022-11-02T04:24:45;24.70;;;15.30;;
37097;SDS011;63608;49.572;12.348;2022-11-02T04:27:04;20.30;;;13.63;;
37097;SDS011;63608;49.572;12.348;2022-11-02T04:29:06;18.63;;;11.33;;
37097;SDS011;63608;49.572;12.348;2022-11-02T04:31:09;16.80;;;11.67;;
37097;SDS011;63608;49.572;12.348;2022-11-02T04:33:12;16.10;;;11.97;;
37097;SDS011;63608;49.572;12.348;2022-11-02T04:35:31;14.00;;;10.80;;
37097;SDS011;63608;49.572;12.348;2022-11-02T04:37:37;12.27;;;10.80;;
37097;SDS011;63608;49.572;12.348;2022-11-02T04:39:58;13.53;;;10.80;;
37097;SDS011;63608;49.572;12.348;2022-11-02T04:42:00;14.30;;;10.87;;
37097;SDS011;63608;49.572;12.348;2022-11-02T04:44:03;18.60;;;11.20;;
37097;SDS011;63608;49.572;12.348;2022-11-02T04:46:22;14.00;;;9.77;;
37097;SDS011;63608;49.572;12.348;2022-11-02T04:48:25;14.00;;;9.97;;
37097;SDS011;63608;49.572;12.348;2022-11-02T04:50:27;15.87;;;10.97;;
37097;SDS011;63608;49.572;12.348;2022-11-02T04:52:30;13.70;;;9.73;;
37097;SDS011;63608;49.572;12.348;2022-11-02T04:54:32;13.47;;;9.50;;
37097;SDS011;63608;49.572;12.348;2022-11-02T04:56:35;14.20;;;9.30;;
37097;SDS011;63608;49.572;12.348;2022-11-02T04:58:38;21.40;;;13.33;;
37097;SDS011;63608;49.572;12.348;2022-11-02T05:00:40;18.10;;;12.00;;
37097;SDS011;63608;49.572;12.348;2022-11-02T05:02:42;16.07;;;10.70;;
37097;SDS011;63608;49.572;12.348;2022-11-02T05:04:47;14.50;;;10.80;;
37097;SDS011;63608;49.572;12.348;2022-11-02T05:06:48;14.57;;;10.93;;
37097;SDS011;63608;49.572;12.348;2022-11-02T05:08:51;23.67;;;14.97;;
37097;SDS011;63608;49.572;12.348;2022-11-02T05:10:53;16.93;;;12.17;;
37097;SDS011;63608;49.572;12.348;2022-11-02T05:12:57;15.70;;;12.27;;
37097;SDS011;63608;49.572;12.348;2022-11-02T05:15:00;13.40;;;11.13;;
37097;SDS011;63608;49.572;12.348;2022-11-02T05:17:04;17.80;;;10.80;;
37097;SDS011;63608;49.572;12.348;2022-11-02T05:19:06;14.97;;;10.70;;
37097;SDS011;63608;49.572;12.348;2022-11-02T05:21:09;15.20;;;10.23;;
37097;SDS011;63608;49.572;12.348;2022-11-02T05:23:11;16.73;;;10.70;;
37097;SDS011;63608;49.572;12.348;2022-11-02T05:25:13;14.93;;;10.50;;
37097;SDS011;63608;49.572;12.348;2022-11-02T05:27:15;16.03;;;10.70;;
37097;SDS011;63608;49.572;12.348;2022-11-02T05:29:20;23.80;;;18.17;;
37097;SDS011;63608;49.572;12.348;2022-11-02T05:31:22;21.70;;;14.87;;
37097;SDS011;63608;49.572;12.348;2022-11-02T05:33:24;16.33;;;12.87;;
37097;SDS011;63608;49.572;12.348;2022-11-02T05:35:27;22.90;;;17.03;;
37097;SDS011;63608;49.572;12.348;2022-11-02T05:37:29;19.90;;;13.50;;
37097;SDS011;63608;49.572;12.348;2022-11-02T05:39:31;14.80;;;11.80;;
37097;SDS011;63608;49.572;12.348;2022-11-02T05:41:34;19.20;;;11.20;;
37097;SDS011;63608;49.572;12.348;2022-11-02T05:43:36;18.53;;;11.30;;
37097;SDS011;63608;49.572;12.348;2022-11-02T05:45:40;17.83;;;12.40;;
37097;SDS011;63608;49.572;12.348;2022-11-02T05:47:42;15.73;;;11.20;;
37097;SDS011;63608;49.572;12.348;2022-11-02T05:49:45;14.00;;;10.83;;
37097;SDS011;63608;49.572;12.348;2022-11-02T05:51:47;15.50;;;10.80;;
37097;SDS011;63608;49.572;12.348;2022-11-02T05:53:49;17.10;;;10.60;;
37097;SDS011;63608;49.572;12.348;2022-11-02T05:55:51;15.03;;;10.17;;
37097;SDS011;63608;49.572;12.348;2022-11-02T05:57:54;13.90;;;9.90;;
37097;SDS011;63608;49.572;12.348;2022-11-02T05:59:55;19.67;;;11.13;;
37097;SDS011;63608;49.572;12.348;2022-11-02T06:01:59;15.57;;;10.30;;
37097;SDS011;63608;49.572;12.348;2022-11-02T06:04:01;14.23;;;10.50;;
37097;SDS011;63608;49.572;12.348;2022-11-02T06:06:03;14.40;;;10.80;;
37097;SDS011;63608;49.572;12.348;2022-11-02T06:08:06;18.13;;;12.70;;
37097;SDS011;63608;49.572;12.348;2022-11-02T06:10:08;17.30;;;11.40;;
37097;SDS011;63608;49.572;12.348;2022-11-02T06:12:10;19.27;;;12.73;;
37097;SDS011;63608;49.572;12.348;2022-11-02T06:14:12;16.63;;;12.27;;
37097;SDS011;63608;49.572;12.348;2022-11-02T06:16:15;22.40;;;12.63;;
37097;SDS011;63608;49.572;12.348;2022-11-02T06:18:18;21.70;;;13.70;;
37097;SDS011;63608;49.572;12.348;2022-11-02T06:20:20;19.80;;;13.63;;
37097;SDS011;63608;49.572;12.348;2022-11-02T06:22:23;18.77;;;11.70;;
37097;SDS011;63608;49.572;12.348;2022-11-02T06:24:25;18.70;;;12.80;;
37097;SDS011;63608;49.572;12.348;2022-11-02T06:26:27;16.07;;;11.40;;
37097;SDS011;63608;49.572;12.348;2022-11-02T06:28:30;17.27;;;12.43;;
37097;SDS011;63608;49.572;12.348;2022-11-02T06:30:32;16.70;;;11.70;;
37097;SDS011;63608;49.572;12.348;2022-11-02T06:32:34;20.87;;;11.93;;
37097;SDS011;63608;49.572;12.348;2022-11-02T06:34:38;16.00;;;12.00;;
37097;SDS011;63608;49.572;12.348;2022-11-02T06:36:40;19.33;;;12.40;;
37097;SDS011;63608;49.572;12.348;2022-11-02T06:38:42;19.30;;;12.67;;
37097;SDS011;63608;49.572;12.348;2022-11-02T06:40:51;18.03;;;12.83;;
37097;SDS011;63608;49.572;12.348;2022-11-02T06:42:54;18.20;;;12.40;;
37097;SDS011;63608;49.572;12.348;2022-11-02T06:44:56;22.03;;;12.97;;
37097;SDS011;63608;49.572;12.348;2022-11-02T06:47:01;20.60;;;13.00;;
37097;SDS011;63608;49.572;12.348;2022-11-02T06:49:03;18.17;;;12.40;;
37097;SDS011;63608;49.572;12.348;2022-11-02T06:51:07;17.90;;;12.13;;
37097;SDS011;63608;49.572;12.348;2022-11-02T06:53:09;15.00;;;11.50;;
37097;SDS011;63608;49.572;12.348;2022-11-02T06:55:12;17.40;;;11.93;;
37097;SDS011;63608;49.572;12.348;2022-11-02T06:57:15;13.70;;;11.37;;
37097;SDS011;63608;49.572;12.348;2022-11-02T06:59:17;14.57;;;11.00;;
37097;SDS011;63608;49.572;12.348;2022-11-02T07:01:19;16.87;;;11.60;;
37097;SDS011;63608;49.572;12.348;2022-11-02T07:03:21;15.17;;;10.63;;
37097;SDS011;63608;49.572;12.348;2022-11-02T07:05:23;17.00;;;11.13;;
37097;SDS011;63608;49.572;12.348;2022-11-02T07:07:26;17.07;;;11.60;;
37097;SDS011;63608;49.572;12.348;2022-11-02T07:09:29;15.93;;;10.63;;
37097;SDS011;63608;49.572;12.348;2022-11-02T07:11:31;19.37;;;11.47;;
37097;SDS011;63608;49.572;12.348;2022-11-02T07:13:33;19.37;;;12.10;;
37097;SDS011;63608;49.572;12.348;2022-11-02T07:15:35;16.37;;;11.37;;
37097;SDS011;63608;49.572;12.348;2022-11-02T07:17:38;20.63;;;12.57;;
37097;SDS011;63608;49.572;12.348;2022-11-02T07:19:40;16.77;;;11.80;;
37097;SDS011;63608;49.572;12.348;2022-11-02T07:21:42;16.27;;;11.27;;
37097;SDS011;63608;49.572;12.348;2022-11-02T07:23:45;17.67;;;12.47;;
37097;SDS011;63608;49.572;12.348;2022-11-02T07:25:48;15.00;;;11.23;;
37097;SDS011;63608;49.572;12.348;2022-11-02T07:27:50;18.33;;;11.30;;
37097;SDS011;63608;49.572;12.348;2022-11-02T07:29:52;16.17;;;9.83;;
37097;SDS011;63608;49.572;12.348;2022-11-02T07:31:54;13.80;;;11.70;;
37097;SDS011;63608;49.572;12.348;2022-11-02T07:33:56;14.67;;;10.73;;
37097;SDS011;63608;49.572;12.348;2022-11-02T07:36:01;16.40;;;11.10;;
37097;SDS011;63608;49.572;12.348;2022-11-02T07:38:03;16.93;;;11.80;;
37097;SDS011;63608;49.572;12.348;2022-11-02T07:40:09;13.80;;;10.43;;
37097;SDS011;63608;49.572;12.348;2022-11-02T07:42:13;11.40;;;9.80;;
37097;SDS011;63608;49.572;12.348;2022-11-02T07:44:15;13.93;;;10.73;;
37097;SDS011;63608;49.572;12.348;2022-11-02T07:46:17;12.33;;;10.17;;
37097;SDS011;63608;49.572;12.348;2022-11-02T07:48:19;15.53;;;9.97;;
37097;SDS011;63608;49.572;12.348;2022-11-02T07:50:21;14.70;;;10.27;;
37097;SDS011;63608;49.572;12.348;2022-11-02T07:52:26;13.33;;;10.20;;
37097;SDS011;63608;49.572;12.348;2022-11-02T07:54:28;17.30;;;10.30;;
37097;SDS011;63608;49.572;12.348;2022-11-02T07:56:31;14.17;;;9.93;;
37097;SDS011;63608;49.572;12.348;2022-11-02T07:58:33;13.40;;;10.10;;
37097;SDS011;63608;49.572;12.348;2022-11-02T08:00:36;13.00;;;9.77;;
37097;SDS011;63608;49.572;12.348;2022-11-02T08:02:40;12.33;;;8.90;;
37097;SDS011;63608;49.572;12.348;2022-11-02T08:04:43;12.83;;;9.67;;
37097;SDS011;63608;49.572;12.348;2022-11-02T08:06:45;15.00;;;9.40;;
37097;SDS011;63608;49.572;12.348;2022-11-02T08:09:03;13.10;;;9.60;;
37097;SDS011;63608;49.572;12.348;2022-11-02T08:11:06;13.17;;;9.50;;
37097;SDS011;63608;49.572;12.348;2022-11-02T08:13:11;13.50;;;9.97;;
37097;SDS011;63608;49.572;12.348;2022-11-02T08:15:14;13.13;;;9.17;;
37097;SDS011;63608;49.572;12.348;2022-11-02T08:17:16;12.40;;;9.13;;
37097;SDS011;63608;49.572;12.348;2022-11-02T08:19:18;13.20;;;9.03;;
37097;SDS011;63608;49.572;12.348;2022-11-02T08:21:21;9.60;;;8.67;;
37097;SDS011;63608;49.572;12.348;2022-11-02T08:23:22;13.23;;;9.67;;
37097;SDS011;63608;49.572;12.348;2022-11-02T08:25:25;13.13;;;9.10;;
37097;SDS011;63608;49.572;12.348;2022-11-02T08:27:27;10.67;;;8.67;;
37097;SDS011;63608;49.572;12.348;2022-11-02T08:29:31;11.93;;;8.77;;
37097;SDS011;63608;49.572;12.348;2022-11-02T08:31:34;9.90;;;8.00;;
37097;SDS011;63608;49.572;12.348;2022-11-02T08:33:36;12.23;;;8.13;;
37097;SDS011;63608;49.572;12.348;2022-11-02T08:35:38;11.47;;;7.40;;
37097;SDS011;63608;49.572;12.348;2022-11-02T08:37:41;10.00;;;7.60;;
37097;SDS011;63608;49.572;12.348;2022-11-02T08:39:43;11.27;;;7.33;;
37097;SDS011;63608;49.572;12.348;2022-11-02T08:41:45;9.37;;;6.87;;
37097;SDS011;63608;49.572;12.348;2022-11-02T08:43:48;12.20;;;6.63;;
37097;SDS011;63608;49.572;12.348;2022-11-02T08:45:51;8.47;;;6.50;;
37097;SDS011;63608;49.572;12.348;2022-11-02T08:47:58;9.77;;;6.07;;
37097;SDS011;63608;49.572;12.348;2022-11-02T08:50:00;7.53;;;5.87;;
37097;SDS011;63608;49.572;12.348;2022-11-02T08:52:02;9.30;;;6.37;;
37097;SDS011;63608;49.572;12.348;2022-11-02T08:54:04;8.10;;;6.00;;
37097;SDS011;63608;49.572;12.348;2022-11-02T08:56:06;12.67;;;6.00;;
37097;SDS011;63608;49.572;12.348;2022-11-02T08:58:08;10.57;;;7.03;;
37097;SDS011;63608;49.572;12.348;2022-11-02T09:00:11;16.70;;;6.30;;
37097;SDS011;63608;49.572;12.348;2022-11-02T09:02:15;9.47;;;5.67;;
37097;SDS011;63608;49.572;12.348;2022-11-02T09:04:17;8.57;;;5.90;;
37097;SDS011;63608;49.572;12.348;2022-11-02T09:06:19;7.00;;;6.20;;
37097;SDS011;63608;49.572;12.348;2022-11-02T09:08:21;9.80;;;5.70;;
37097;SDS011;63608;49.572;12.348;2022-11-02T09:10:24;10.90;;;5.47;;
37097;SDS011;63608;49.572;12.348;2022-11-02T09:12:27;8.70;;;5.70;;
37097;SDS011;63608;49.572;12.348;2022-11-02T09:14:29;9.10;;;4.90;;
37097;SDS011;63608;49.572;12.348;2022-11-02T09:16:31;6.80;;;5.07;;
37097;SDS011;63608;49.572;12.348;2022-11-02T09:18:35;6.33;;;4.57;;
37097;SDS011;63608;49.572;12.348;2022-11-02T09:20:37;8.23;;;4.47;;
37097;SDS011;63608;49.572;12.348;2022-11-02T09:22:39;6.43;;;4.20;;
37097;SDS011;63608;49.572;12.348;2022-11-02T09:24:41;10.07;;;4.63;;
37097;SDS011;63608;49.572;12.348;2022-11-02T09:26:43;8.10;;;4.40;;
37097;SDS011;63608;49.572;12.348;2022-11-02T09:28:47;5.10;;;4.40;;
37097;SDS011;63608;49.572;12.348;2022-11-02T09:30:49;7.07;;;4.73;;
37097;SDS011;63608;49.572;12.348;2022-11-02T09:32:54;13.50;;;9.47;;
37097;SDS011;63608;49.572;12.348;2022-11-02T09:34:59;5.27;;;3.90;;
37097;SDS011;63608;49.572;12.348;2022-11-02T09:37:01;6.67;;;3.80;;
37097;SDS011;63608;49.572;12.348;2022-11-02T09:39:07;6.77;;;4.20;;
37097;SDS011;63608;49.572;12.348;2022-11-02T09:41:11;4.93;;;4.00;;
37097;SDS011;63608;49.572;12.348;2022-11-02T09:43:17;6.43;;;3.60;;
37097;SDS011;63608;49.572;12.348;2022-11-02T09:45:23;9.80;;;3.87;;
37097;SDS011;63608;49.572;12.348;2022-11-02T09:47:26;11.10;;;3.40;;
37097;SDS011;63608;49.572;12.348;2022-11-02T09:49:29;8.33;;;3.90;;
37097;SDS011;63608;49.572;12.348;2022-11-02T09:51:34;5.27;;;3.07;;
37097;SDS011;63608;49.572;12.348;2022-11-02T09:53:40;4.37;;;3.97;;
37097;SDS011;63608;49.572;12.348;2022-11-02T09:55:48;8.07;;;4.00;;
37097;SDS011;63608;49.572;12.348;2022-11-02T09:57:54;5.27;;;3.10;;
37097;SDS011;63608;49.572;12.348;2022-11-02T10:00:00;8.77;;;5.87;;
37097;SDS011;63608;49.572;12.348;2022-11-02T10:02:04;5.60;;;4.40;;
37097;SDS011;63608;49.572;12.348;2022-11-02T10:04:19;5.57;;;2.97;;
37097;SDS011;63608;49.572;12.348;2022-11-02T10:06:34;8.70;;;5.80;;
37097;SDS011;63608;49.572;12.348;2022-11-02T10:08:40;17.97;;;15.10;;
37097;SDS011;63608;49.572;12.348;2022-11-02T10:10:49;6.00;;;3.70;;
37097;SDS011;63608;49.572;12.348;2022-11-02T10:12:55;7.23;;;4.10;;
37097;SDS011;63608;49.572;12.348;2022-11-02T10:15:04;5.10;;;3.50;;
37097;SDS011;63608;49.572;12.348;2022-11-02T10:17:10;8.80;;;3.63;;
37097;SDS011;63608;49.572;12.348;2022-11-02T10:19:16;4.73;;;2.70;;
37097;SDS011;63608;49.572;12.348;2022-11-02T10:21:20;3.63;;;2.87;;
37097;SDS011;63608;49.572;12.348;2022-11-02T10:23:29;4.00;;;3.07;;
37097;SDS011;63608;49.572;12.348;2022-11-02T10:25:32;5.60;;;2.57;;
37097;SDS011;63608;49.572;12.348;2022-11-02T10:27:36;3.10;;;2.30;;
37097;SDS011;63608;49.572;12.348;2022-11-02T10:29:40;6.90;;;2.63;;
37097;SDS011;63608;49.572;12.348;2022-11-02T10:31:44;4.20;;;2.50;;
37097;SDS011;63608;49.572;12.348;2022-11-02T10:33:47;3.93;;;2.33;;
37097;SDS011;63608;49.572;12.348;2022-11-02T10:35:51;6.00;;;2.30;;
37097;SDS011;63608;49.572;12.348;2022-11-02T10:38:04;9.00;;;2.53;;
37097;SDS011;63608;49.572;12.348;2022-11-02T10:40:18;6.63;;;4.00;;
37097;SDS011;63608;49.572;12.348;2022-11-02T10:42:30;6.20;;;4.10;;
37097;SDS011;63608;49.572;12.348;2022-11-02T10:44:56;11.13;;;9.00;;
37097;SDS011;63608;49.572;12.348;2022-11-02T10:47:08;21.97;;;13.13;;
37097;SDS011;63608;49.572;12.348;2022-11-02T10:49:19;94.63;;;53.87;;
37097;SDS011;63608;49.572;12.348;2022-11-02T10:51:30;8.90;;;5.20;;
37097;SDS011;63608;49.572;12.348;2022-11-02T10:53:33;9.63;;;4.03;;
37097;SDS011;63608;49.572;12.348;2022-11-02T10:55:38;9.27;;;6.40;;
37097;SDS011;63608;49.572;12.348;2022-11-02T10:57:46;8.60;;;4.33;;
37097;SDS011;63608;49.572;12.348;2022-11-02T11:02:24;2.90;;;2.20;;
37097;SDS011;63608;49.572;12.348;2022-11-02T11:04:26;7.60;;;2.30;;
37097;SDS011;63608;49.572;12.348;2022-11-02T11:06:30;2.40;;;1.93;;
37097;SDS011;63608;49.572;12.348;2022-11-02T11:08:36;5.37;;;2.53;;
37097;SDS011;63608;49.572;12.348;2022-11-02T11:10:41;8.37;;;3.80;;
37097;SDS011;63608;49.572;12.348;2022-11-02T11:12:44;6.50;;;4.30;;
37097;SDS011;63608;49.572;12.348;2022-11-02T11:14:55;5.93;;;4.07;;
37097;SDS011;63608;49.572;12.348;2022-11-02T11:16:58;10.87;;;2.90;;
37097;SDS011;63608;49.572;12.348;2022-11-02T11:19:02;4.37;;;2.53;;
37097;SDS011;63608;49.572;12.348;2022-11-02T11:21:05;4.10;;;2.20;;
37097;SDS011;63608;49.572;12.348;2022-11-02T11:23:08;17.20;;;12.90;;
37097;SDS011;63608;49.572;12.348;2022-11-02T11:25:20;5.93;;;4.00;;
37097;SDS011;63608;49.572;12.348;2022-11-02T11:27:24;6.10;;;5.10;;
37097;SDS011;63608;49.572;12.348;2022-11-02T11:29:29;13.47;;;9.80;;
37097;SDS011;63608;49.572;12.348;2022-11-02T11:31:31;5.20;;;3.10;;
37097;SDS011;63608;49.572;12.348;2022-11-02T11:33:40;4.90;;;2.23;;
37097;SDS011;63608;49.572;12.348;2022-11-02T11:35:46;5.47;;;2.43;;
37097;SDS011;63608;49.572;12.348;2022-11-02T11:37:50;5.33;;;1.87;;
37097;SDS011;63608;49.572;12.348;2022-11-02T11:39:56;3.70;;;2.00;;
37097;SDS011;63608;49.572;12.348;2022-11-02T11:42:00;2.30;;;2.10;;
37097;SDS011;63608;49.572;12.348;2022-11-02T11:44:06;7.90;;;2.00;;
37097;SDS011;63608;49.572;12.348;2022-11-02T11:46:12;4.47;;;2.40;;
37097;SDS011;63608;49.572;12.348;2022-11-02T11:48:18;6.47;;;1.90;;
37097;SDS011;63608;49.572;12.348;2022-11-02T11:50:24;5.47;;;1.87;;
37097;SDS011;63608;49.572;12.348;2022-11-02T11:52:27;4.60;;;1.70;;
37097;SDS011;63608;49.572;12.348;2022-11-02T11:54:30;3.83;;;1.90;;
37097;SDS011;63608;49.572;12.348;2022-11-02T11:56:33;4.47;;;2.27;;
37097;SDS011;63608;49.572;12.348;2022-11-02T11:58:35;2.90;;;1.60;;
37097;SDS011;63608;49.572;12.348;2022-11-02T12:00:39;3.57;;;1.63;;
37097;SDS011;63608;49.572;12.348;2022-11-02T12:02:42;4.70;;;1.90;;
37097;SDS011;63608;49.572;12.348;2022-11-02T12:04:44;2.80;;;1.97;;
37097;SDS011;63608;49.572;12.348;2022-11-02T12:06:48;4.50;;;1.97;;
37097;SDS011;63608;49.572;12.348;2022-11-02T12:08:56;4.03;;;2.30;;
37097;SDS011;63608;49.572;12.348;2022-11-02T12:11:05;4.60;;;2.10;;
37097;SDS011;63608;49.572;12.348;2022-11-02T12:13:20;4.03;;;2.20;;